Time;durP1;ratioP1;P1;durP2;ratioP2;P2;SDS_P1;SDS_P2;PMS_P1;PMS_P2;Temp;Humidity;BMP_temperature;BMP_pressure;BME280_temperature;BME280_humidity;BME280_pressure;Samples;Min_cycle;Max_cycle;Signal;HPM_P1;HPM_P2
2022/08/13 00:01:49;;;;;;;16.60;11.70;;;;;;;25.13;100.00;100763.69;5095473;28;20071;-78
2022/08/13 00:04:37;;;;;;;14.13;11.40;;;;;;;24.95;100.00;100767.78;5079946;28;20055;-79
2022/08/13 00:07:23;;;;;;;15.73;11.57;;;;;;;25.26;100.00;100768.00;5094096;28;20024;-80
2022/08/13 00:10:20;;;;;;;16.25;12.38;;;;;;;25.08;100.00;100758.69;5095415;28;20144;-80
2022/08/13 00:13:06;;;;;;;13.50;11.38;;;;;;;25.09;100.00;100757.72;5095388;28;20043;-79
2022/08/13 00:15:52;;;;;;;17.20;11.93;;;;;;;25.10;100.00;100767.47;5094302;28;20107;-79
2022/08/13 00:18:40;;;;;;;15.40;11.45;;;;;;;25.04;100.00;100751.00;5093872;28;20038;-79
2022/08/13 00:21:26;;;;;;;18.10;12.00;;;;;;;25.05;100.00;100752.69;5080788;28;20182;-79
2022/08/13 00:24:12;;;;;;;15.90;12.13;;;;;;;24.90;100.00;100752.06;5094196;28;20020;-79
2022/08/13 00:26:59;;;;;;;15.52;12.18;;;;;;;25.01;100.00;100749.41;5094400;28;20115;-79
2022/08/13 00:29:45;;;;;;;13.95;11.98;;;;;;;24.94;100.00;100749.97;5094400;28;20024;-79
2022/08/13 00:32:32;;;;;;;14.30;11.40;;;;;;;24.97;100.00;100755.97;5093740;28;20043;-80
2022/08/13 00:35:18;;;;;;;18.00;12.50;;;;;;;24.62;100.00;100751.53;5079392;28;20051;-80
2022/08/13 00:38:08;;;;;;;17.25;11.88;;;;;;;24.87;100.00;100756.81;5095047;28;20027;-79
2022/08/13 00:40:59;;;;;;;14.07;11.75;;;;;;;24.70;100.00;100754.50;5093914;28;20403;-79
2022/08/13 00:43:45;;;;;;;17.60;12.02;;;;;;;24.72;100.00;100750.78;5079639;28;20031;-80
2022/08/13 00:46:32;;;;;;;17.98;12.30;;;;;;;24.78;100.00;100752.09;5095366;28;20443;-80
2022/08/13 00:49:18;;;;;;;13.68;11.25;;;;;;;24.89;100.00;100750.34;5094971;28;20038;-79
2022/08/13 00:52:07;;;;;;;19.80;11.90;;;;;;;24.87;100.00;100754.13;5094667;28;20107;-79
2022/08/13 00:54:52;;;;;;;14.90;11.85;;;;;;;24.91;100.00;100748.38;5094452;28;20059;-79
2022/08/13 00:57:38;;;;;;;15.95;11.70;;;;;;;24.95;100.00;100749.03;5080047;28;20031;-80
2022/08/13 01:00:26;;;;;;;16.65;12.75;;;;;;;24.81;100.00;100746.53;5094741;28;20050;-80
2022/08/13 01:03:12;;;;;;;22.17;12.38;;;;;;;24.88;100.00;100745.09;5093414;28;20035;-81
2022/08/13 01:06:01;;;;;;;13.77;11.68;;;;;;;24.79;100.00;100741.28;5093873;28;20107;-79
2022/08/13 01:08:48;;;;;;;16.27;12.35;;;;;;;24.98;100.00;100738.91;5079728;28;20028;-80
2022/08/13 01:11:37;;;;;;;15.10;11.70;;;;;;;24.47;100.00;100739.28;5079770;28;20035;-79
2022/08/13 01:14:27;;;;;;;17.42;12.35;;;;;;;24.82;100.00;100740.19;5093657;28;20048;-79
2022/08/13 01:17:13;;;;;;;17.13;12.93;;;;;;;24.51;100.00;100741.59;5094438;28;20520;-79
2022/08/13 01:19:58;;;;;;;14.35;11.90;;;;;;;24.53;100.00;100736.13;5094285;28;20479;-80
2022/08/13 01:22:45;;;;;;;16.80;11.93;;;;;;;24.53;100.00;100742.34;5095038;28;20054;-79
2022/08/13 01:25:32;;;;;;;15.30;11.50;;;;;;;24.62;100.00;100739.00;5093527;28;20020;-80
2022/08/13 01:28:19;;;;;;;16.40;12.23;;;;;;;24.73;100.00;100732.84;5094936;28;20035;-80
2022/08/13 01:31:06;;;;;;;16.00;12.02;;;;;;;24.57;100.00;100732.25;5093910;28;20032;-80
2022/08/13 01:33:55;;;;;;;16.05;12.10;;;;;;;24.33;100.00;100734.06;5093930;28;20023;-80
2022/08/13 01:36:42;;;;;;;15.98;12.02;;;;;;;24.62;100.00;100730.13;5095246;28;20051;-80
2022/08/13 01:39:29;;;;;;;14.93;11.68;;;;;;;24.50;100.00;100726.50;5094968;28;20032;-79
2022/08/13 01:42:20;;;;;;;15.35;12.15;;;;;;;24.46;100.00;100729.50;5099009;28;20028;-79
2022/08/13 01:45:08;;;;;;;16.92;12.68;;;;;;;24.57;100.00;100732.25;5097474;28;20028;-79
2022/08/13 01:50:57;;;;;;;16.33;12.50;;;;;;;24.50;100.00;100723.81;5099185;28;20027;-79
2022/08/13 01:53:46;;;;;;;16.95;13.02;;;;;;;24.13;100.00;100727.53;5082484;28;20075;-78
2022/08/13 01:56:32;;;;;;;17.35;11.90;;;;;;;24.20;100.00;100722.56;5097830;28;20110;-80
2022/08/13 01:59:18;;;;;;;14.85;12.10;;;;;;;24.36;100.00;100718.66;5097615;28;20103;-79
2022/08/13 02:02:05;;;;;;;14.52;11.77;;;;;;;24.27;100.00;100718.47;5098106;28;20028;-80
2022/08/13 02:04:52;;;;;;;18.55;11.80;;;;;;;24.35;100.00;100718.75;5098344;28;20074;-80
2022/08/13 02:07:42;;;;;;;14.50;11.93;;;;;;;24.12;100.00;100720.47;5086978;28;20028;-79
2022/08/13 02:10:28;;;;;;;16.95;12.73;;;;;;;24.16;100.00;100719.28;5100814;28;20024;-80
2022/08/13 02:13:20;;;;;;;18.08;12.70;;;;;;;24.05;100.00;100721.88;5097521;28;20505;-79
2022/08/13 02:16:06;;;;;;;17.73;13.02;;;;;;;24.04;100.00;100716.63;5082139;28;20465;-80
2022/08/13 02:18:52;;;;;;;19.58;12.50;;;;;;;24.03;100.00;100717.59;5096538;28;20035;-79
2022/08/13 02:21:40;;;;;;;16.27;11.93;;;;;;;23.54;100.00;100716.69;5096711;28;20075;-79
2022/08/13 02:24:25;;;;;;;16.48;12.45;;;;;;;23.95;100.00;100717.28;5082477;28;20024;-79
2022/08/13 02:27:11;;;;;;;16.10;13.15;;;;;;;24.01;100.00;100709.66;5097526;28;20087;-79
2022/08/13 02:29:59;;;;;;;15.35;12.65;;;;;;;23.77;100.00;100714.09;5097402;28;20020;-79
2022/08/13 02:32:45;;;;;;;15.95;13.43;;;;;;;23.72;100.00;100707.34;5097293;28;20085;-78
2022/08/13 02:35:34;;;;;;;16.05;12.25;;;;;;;23.67;100.00;100704.16;5098143;28;20024;-79
2022/08/13 02:38:20;;;;;;;19.63;12.90;;;;;;;23.64;100.00;100704.38;5096203;28;20145;-79
2022/08/13 02:44:12;;;;;;;15.40;12.48;;;;;;;23.59;100.00;100701.16;5096949;28;20028;-79
2022/08/13 02:46:58;;;;;;;15.20;12.68;;;;;;;23.67;100.00;100698.81;5082271;28;20027;-80
2022/08/13 02:49:44;;;;;;;16.75;13.30;;;;;;;23.78;100.00;100693.53;5096079;28;20568;-80
2022/08/13 02:52:30;;;;;;;14.65;12.20;;;;;;;23.71;100.00;100694.94;5095739;28;20449;-80
2022/08/13 02:55:16;;;;;;;15.43;12.60;;;;;;;23.70;100.00;100690.56;5096325;28;20123;-79
2022/08/13 02:58:04;;;;;;;17.50;12.95;;;;;;;23.43;100.00;100688.88;5096156;28;20038;-78
2022/08/13 03:00:51;;;;;;;17.02;12.82;;;;;;;23.56;100.00;100694.22;5095992;28;20043;-79
2022/08/13 03:03:37;;;;;;;16.25;12.95;;;;;;;23.36;100.00;100692.94;5081422;28;20078;-80
2022/08/13 03:06:24;;;;;;;15.40;12.30;;;;;;;23.66;100.00;100694.44;5097006;28;20028;-79
2022/08/13 03:09:10;;;;;;;17.30;13.23;;;;;;;23.58;100.00;100686.09;5095522;28;20038;-79
2022/08/13 03:12:00;;;;;;;16.05;12.80;;;;;;;23.57;100.00;100692.38;5096691;28;20097;-79
2022/08/13 03:14:46;;;;;;;15.07;12.35;;;;;;;23.51;100.00;100695.50;5096179;28;20120;-79
2022/08/13 03:17:32;;;;;;;17.45;13.00;;;;;;;23.45;100.00;100696.78;5096990;28;20314;-80
2022/08/13 03:20:18;;;;;;;15.77;13.10;;;;;;;23.53;100.00;100702.47;5080990;28;20028;-79
2022/08/13 03:23:04;;;;;;;16.38;12.82;;;;;;;23.59;100.00;100703.84;5095863;28;20337;-79
2022/08/13 03:25:50;;;;;;;17.83;13.88;;;;;;;23.17;100.00;100708.53;5096398;28;20110;-80
2022/08/13 03:28:37;;;;;;;16.05;12.85;;;;;;;23.15;100.00;100706.94;5081860;28;20063;-79
2022/08/13 03:31:24;;;;;;;17.30;13.45;;;;;;;23.32;100.00;100707.50;5096093;28;20101;-79
2022/08/13 03:34:10;;;;;;;15.35;13.30;;;;;;;23.53;100.00;100694.44;5095181;28;20049;-79
2022/08/13 03:36:56;;;;;;;20.33;13.50;;;;;;;23.50;100.00;100696.47;5095964;28;20060;-80
2022/08/13 03:39:42;;;;;;;18.13;13.25;;;;;;;23.25;100.00;100708.03;5096040;28;20110;-79
2022/08/13 03:42:28;;;;;;;17.42;13.15;;;;;;;23.73;100.00;100706.38;5095804;28;20518;-79
2022/08/13 03:45:15;;;;;;;17.25;13.07;;;;;;;23.43;100.00;100704.91;5095023;28;20047;-80
2022/08/13 03:48:01;;;;;;;18.58;13.23;;;;;;;23.42;100.00;100705.03;5095236;28;20120;-79
2022/08/13 03:50:48;;;;;;;16.25;13.20;;;;;;;23.54;100.00;100700.66;5094643;28;20115;-80
2022/08/13 03:53:35;;;;;;;17.02;13.02;;;;;;;23.46;100.00;100703.00;5081184;28;20064;-79
2022/08/13 03:56:23;;;;;;;17.92;14.75;;;;;;;23.56;100.00;100699.56;5095366;28;20085;-79
2022/08/13 03:59:10;;;;;;;17.27;13.77;;;;;;;23.40;100.00;100699.78;5094731;28;20028;-80
2022/08/13 04:01:56;;;;;;;17.40;13.98;;;;;;;23.58;100.00;100702.97;5095724;28;20448;-80
2022/08/13 04:04:46;;;;;;;18.23;14.32;;;;;;;23.51;100.00;100698.19;5096582;28;20043;-81
2022/08/13 04:07:32;;;;;;;17.52;14.45;;;;;;;23.40;100.00;100698.94;5095442;28;20024;-79
2022/08/13 04:10:19;;;;;;;19.08;14.95;;;;;;;23.35;100.00;100704.59;5095255;28;20035;-80
2022/08/13 04:13:11;;;;;;;20.85;14.40;;;;;;;23.56;100.00;100688.00;5095427;28;20111;-80
2022/08/13 04:15:56;;;;;;;18.38;13.73;;;;;;;23.61;100.00;100696.56;5080660;28;20020;-79
2022/08/13 04:18:44;;;;;;;18.88;13.88;;;;;;;23.71;100.00;100697.63;5095295;28;20041;-79
2022/08/13 04:21:31;;;;;;;19.67;14.40;;;;;;;23.72;100.00;100689.50;5094673;28;20111;-80
2022/08/13 04:24:18;;;;;;;21.80;14.73;;;;;;;23.69;100.00;100697.72;5095013;28;20082;-80
2022/08/13 04:27:04;;;;;;;23.13;14.65;;;;;;;23.66;100.00;100695.25;5095478;28;20067;-79
2022/08/13 04:29:51;;;;;;;20.67;13.73;;;;;;;23.78;100.00;100689.03;5094647;28;20020;-80
2022/08/13 04:32:43;;;;;;;19.83;13.38;;;;;;;24.09;100.00;100687.69;5095559;28;20028;-79
2022/08/13 04:35:30;;;;;;;19.55;13.32;;;;;;;23.89;100.00;100697.16;5096574;28;20043;-79
2022/08/13 04:38:16;;;;;;;20.80;15.18;;;;;;;24.01;100.00;100698.09;5095892;28;20035;-80
2022/08/13 04:41:02;;;;;;;16.70;13.23;;;;;;;24.08;100.00;100700.22;5080579;28;20024;-80
2022/08/13 04:43:47;;;;;;;19.67;13.82;;;;;;;24.22;100.00;100700.06;5095665;28;20391;-80
2022/08/13 04:46:33;;;;;;;17.17;12.90;;;;;;;24.26;100.00;100706.91;5080454;28;20079;-81
2022/08/13 04:49:19;;;;;;;19.95;14.27;;;;;;;24.06;100.00;100702.16;5095214;28;20073;-80
2022/08/13 04:52:05;;;;;;;19.17;13.35;;;;;;;24.11;100.00;100696.47;5095711;28;20036;-80
2022/08/13 04:54:50;;;;;;;17.58;13.65;;;;;;;24.40;100.00;100698.72;5095143;28;20048;-79
2022/08/13 04:57:38;;;;;;;15.13;13.00;;;;;;;24.57;100.00;100694.75;5093710;28;20027;-80
2022/08/13 05:00:25;;;;;;;16.45;13.20;;;;;;;24.55;100.00;100694.84;5094478;28;20043;-79
2022/08/13 05:03:15;;;;;;;18.00;12.93;;;;;;;24.64;100.00;100699.59;5092857;28;20040;-79
2022/08/13 05:06:00;;;;;;;16.33;13.05;;;;;;;24.43;100.00;100686.91;5096280;28;20028;-79
2022/08/13 05:08:47;;;;;;;17.13;13.07;;;;;;;24.48;100.00;100690.09;5095049;28;20098;-80
2022/08/13 05:11:33;;;;;;;16.27;13.10;;;;;;;24.37;100.00;100698.06;5094350;28;20034;-80
2022/08/13 05:14:18;;;;;;;18.63;12.88;;;;;;;24.87;100.00;100698.66;5098546;28;20039;-80
2022/08/13 05:17:04;;;;;;;16.35;12.73;;;;;;;24.83;100.00;100696.34;5099443;28;20020;-79
2022/08/13 05:19:50;;;;;;;18.65;12.77;;;;;;;24.94;100.00;100696.34;5099163;28;20480;-80
2022/08/13 05:22:36;;;;;;;15.70;13.25;;;;;;;25.12;100.00;100703.00;5098591;28;20020;-80
2022/08/13 05:25:22;;;;;;;18.15;13.50;;;;;;;24.82;100.00;100697.31;5099477;28;20024;-79
2022/08/13 05:28:08;;;;;;;15.65;12.45;;;;;;;24.94;100.00;100704.41;5093363;28;20024;-78
2022/08/13 05:30:54;;;;;;;17.67;12.95;;;;;;;25.09;100.00;100698.72;5102342;28;20028;-80
2022/08/13 05:33:40;;;;;;;16.90;12.75;;;;;;;25.07;100.00;100697.16;5098820;28;20054;-80
2022/08/13 05:36:28;;;;;;;16.75;13.43;;;;;;;25.24;100.00;100697.50;5098192;28;20016;-80
2022/08/13 05:39:14;;;;;;;15.95;12.85;;;;;;;25.26;100.00;100694.72;5101927;28;20028;-79
2022/08/13 05:42:00;;;;;;;16.75;12.15;;;;;;;25.29;100.00;100695.38;5105058;28;20028;-79
2022/08/13 05:44:48;;;;;;;16.80;12.70;;;;;;;25.32;100.00;100692.44;5101251;28;20024;-79
2022/08/13 05:47:38;;;;;;;17.60;12.23;;;;;;;25.40;100.00;100694.53;5099766;28;20101;-80
2022/08/13 05:50:25;;;;;;;17.50;13.02;;;;;;;25.49;100.00;100689.31;5098155;28;20421;-80
2022/08/13 05:53:11;;;;;;;18.08;12.68;;;;;;;25.17;100.00;100692.75;5098551;28;20028;-80
2022/08/13 05:55:58;;;;;;;15.38;12.23;;;;;;;25.75;100.00;100700.63;5099494;28;20128;-80
2022/08/13 05:58:44;;;;;;;20.88;13.13;;;;;;;25.80;100.00;100699.28;5085419;28;20031;-79
2022/08/13 06:04:34;;;;;;;17.60;13.40;;;;;;;25.76;100.00;100697.81;5102982;28;20093;-80
2022/08/13 06:07:22;;;;;;;15.20;11.82;;;;;;;26.00;100.00;100700.41;5103651;28;20028;-80
2022/08/13 06:10:08;;;;;;;20.23;12.65;;;;;;;26.08;100.00;100695.25;5100319;28;20413;-79
2022/08/13 06:12:54;;;;;;;15.88;12.80;;;;;;;26.28;100.00;100702.53;5100321;28;20444;-80
2022/08/13 06:15:42;;;;;;;18.17;12.27;;;;;;;26.56;100.00;100702.78;5100171;28;20119;-80
2022/08/13 06:18:31;;;;;;;16.02;12.38;;;;;;;26.78;100.00;100701.88;5102065;28;20384;-80
2022/08/13 06:21:21;;;;;;;17.17;13.15;;;;;;;26.26;100.00;100699.97;5108857;28;20028;-79
2022/08/13 06:24:06;;;;;;;17.80;12.50;;;;;;;26.55;100.00;100695.72;5106053;28;20095;-79
2022/08/13 06:26:52;;;;;;;18.88;12.95;;;;;;;26.65;100.00;100695.81;5085379;28;20024;-80
2022/08/13 06:29:40;;;;;;;16.70;12.65;;;;;;;26.81;100.00;100696.25;5103442;28;20020;-79
2022/08/13 06:32:29;;;;;;;17.15;12.27;;;;;;;26.62;100.00;100701.44;5104353;28;20057;-79
2022/08/13 06:35:18;;;;;;;18.17;11.88;;;;;;;26.80;100.00;100691.84;5100283;28;20428;-80
2022/08/13 06:38:06;;;;;;;15.95;12.20;;;;;;;26.70;100.00;100689.09;5100885;28;20016;-80
2022/08/13 06:40:54;;;;;;;20.58;13.38;;;;;;;26.89;100.00;100686.50;5100422;28;20033;-79
2022/08/13 06:43:47;;;;;;;14.65;12.68;;;;;;;26.48;100.00;100683.75;5097606;28;20032;-79
2022/08/13 06:46:33;;;;;;;17.75;12.30;;;;;;;26.32;100.00;100677.13;5102965;28;20390;-79
2022/08/13 06:49:18;;;;;;;15.77;12.75;;;;;;;26.85;100.00;100673.47;5090149;28;20089;-80
2022/08/13 06:52:05;;;;;;;16.83;12.35;;;;;;;27.23;100.00;100663.84;5093219;28;20038;-79
2022/08/13 06:54:50;;;;;;;16.25;12.70;;;;;;;27.29;100.00;100671.38;5101854;28;20052;-80
2022/08/13 06:57:36;;;;;;;16.65;11.43;;;;;;;27.29;100.00;100666.00;5097936;28;20028;-80
2022/08/13 07:00:25;;;;;;;16.92;12.15;;;;;;;27.42;100.00;100660.41;5081844;28;20031;-75
2022/08/13 07:03:11;;;;;;;16.85;12.60;;;;;;;27.52;100.00;100658.59;5095637;28;20055;-76
2022/08/13 07:05:57;;;;;;;16.17;12.45;;;;;;;27.56;100.00;100664.56;5096126;28;20074;-76
2022/08/13 07:08:44;;;;;;;15.25;12.70;;;;;;;27.55;100.00;100661.00;5097453;28;20031;-75
2022/08/13 07:11:31;;;;;;;14.60;12.07;;;;;;;27.70;100.00;100661.47;5080859;28;20024;-75
2022/08/13 07:14:17;;;;;;;14.77;12.52;;;;;;;27.82;100.00;100666.66;5080307;28;20024;-75
2022/08/13 07:17:03;;;;;;;14.85;12.02;;;;;;;27.82;100.00;100666.66;5081940;28;20097;-76
2022/08/13 07:19:49;;;;;;;15.23;12.27;;;;;;;27.65;100.00;100661.91;5096162;28;20024;-76
2022/08/13 07:22:35;;;;;;;14.68;12.90;;;;;;;27.87;100.00;100666.25;5095691;28;20040;-76
2022/08/13 07:25:29;;;;;;;16.45;12.55;;;;;;;28.16;100.00;100657.22;5095942;28;20097;-76
2022/08/13 07:28:19;;;;;;;18.13;12.68;;;;;;;27.97;100.00;100656.34;5081501;28;20115;-75
2022/08/13 07:31:07;;;;;;;19.83;12.63;;;;;;;28.02;100.00;100654.97;5096053;28;20039;-75
2022/08/13 07:33:56;;;;;;;17.30;12.70;;;;;;;28.41;100.00;100662.09;5094703;28;20024;-76
2022/08/13 07:36:41;;;;;;;17.25;12.25;;;;;;;28.52;100.00;100664.66;5094814;28;20024;-76
2022/08/13 07:39:28;;;;;;;14.57;12.15;;;;;;;28.34;100.00;100657.41;5094589;28;20342;-75
2022/08/13 07:42:16;;;;;;;16.67;12.63;;;;;;;28.10;100.00;100655.09;5095555;28;20459;-76
2022/08/13 07:45:02;;;;;;;16.30;13.00;;;;;;;28.66;100.00;100650.78;5079951;28;20031;-76
2022/08/13 07:47:50;;;;;;;15.65;12.18;;;;;;;28.86;100.00;100648.88;5094396;28;20043;-75
2022/08/13 07:50:36;;;;;;;16.10;12.20;;;;;;;29.08;100.00;100648.56;5094333;28;20032;-75
2022/08/13 07:53:23;;;;;;;14.02;11.93;;;;;;;29.19;100.00;100654.69;5079874;28;20254;-76
2022/08/13 07:56:09;;;;;;;16.92;12.25;;;;;;;29.36;100.00;100655.72;5079582;28;20119;-75
2022/08/13 07:59:18;;;;;;;19.45;12.63;;;;;;;29.31;100.00;100644.53;5095753;28;20039;-76
2022/08/13 08:02:08;;;;;;;19.23;12.98;;;;;;;29.28;100.00;100648.38;5080303;28;20038;-76
2022/08/13 08:04:56;;;;;;;15.32;12.18;;;;;;;29.78;100.00;100651.63;5079691;28;20031;-76
2022/08/13 08:07:44;;;;;;;16.45;12.60;;;;;;;30.02;100.00;100646.50;5094124;28;20089;-76
2022/08/13 08:10:30;;;;;;;15.48;12.45;;;;;;;30.33;99.40;100647.84;5095457;28;20035;-76
2022/08/13 08:13:17;;;;;;;16.05;12.45;;;;;;;30.73;96.93;100646.41;5095249;28;20118;-76
2022/08/13 08:16:03;;;;;;;18.92;13.65;;;;;;;30.49;97.08;100642.59;5095319;28;20036;-76
2022/08/13 08:18:49;;;;;;;14.63;12.15;;;;;;;30.36;96.96;100636.72;5094400;28;20024;-75
2022/08/13 08:21:40;;;;;;;16.70;12.35;;;;;;;30.02;97.63;100638.38;5095117;28;20357;-77
2022/08/13 08:24:32;;;;;;;17.95;12.88;;;;;;;30.26;97.29;100631.38;5095270;28;20039;-75
2022/08/13 08:27:19;;;;;;;17.50;12.52;;;;;;;30.81;95.23;100632.06;5094736;28;20364;-76
2022/08/13 08:30:06;;;;;;;16.08;12.18;;;;;;;31.05;93.62;100624.97;5095042;28;20028;-76
2022/08/13 08:32:53;;;;;;;19.85;13.15;;;;;;;31.11;91.63;100626.22;5079178;28;20113;-76
2022/08/13 08:35:40;;;;;;;15.57;12.60;;;;;;;31.00;92.25;100623.75;5094569;28;20287;-76
2022/08/13 08:44:37;;;;;;;17.50;12.35;;;;;;;31.63;86.22;100613.47;5094691;28;20073;-76
2022/08/13 08:47:32;;;;;;;18.52;12.20;;;;;;;31.89;84.77;100614.28;5094450;28;20063;-76
2022/08/13 08:50:24;;;;;;;17.02;12.00;;;;;;;31.87;86.73;100610.88;5093423;28;20032;-76
2022/08/13 08:53:19;;;;;;;14.07;11.13;;;;;;;32.31;82.13;100609.63;5094655;28;20028;-77
2022/08/13 08:56:08;;;;;;;16.23;11.63;;;;;;;31.84;83.28;100603.91;5094625;28;20359;-76
2022/08/13 08:58:55;;;;;;;15.70;11.43;;;;;;;31.54;83.03;100598.19;5094688;28;20479;-76
2022/08/13 09:01:42;;;;;;;14.27;11.75;;;;;;;31.26;83.69;100598.41;5094518;28;20125;-76
2022/08/13 09:04:29;;;;;;;15.85;12.15;;;;;;;31.57;81.22;100585.16;5080433;28;20024;-76
2022/08/13 09:07:16;;;;;;;17.52;11.77;;;;;;;31.19;84.62;100591.88;5093599;28;20032;-77
2022/08/13 09:10:04;;;;;;;13.77;11.50;;;;;;;31.76;82.25;100587.59;5093647;28;20415;-77
2022/08/13 09:12:53;;;;;;;14.93;11.80;;;;;;;31.08;86.09;100585.91;5094451;28;20020;-76
2022/08/13 09:15:40;;;;;;;14.60;11.20;;;;;;;31.53;85.92;100591.09;5078735;28;20012;-76
2022/08/13 09:18:26;;;;;;;16.50;11.75;;;;;;;31.33;82.28;100585.06;5094555;28;20332;-76
2022/08/13 09:21:12;;;;;;;14.65;11.52;;;;;;;31.88;78.38;100585.44;5094108;28;20369;-76
2022/08/13 09:24:01;;;;;;;13.15;11.07;;;;;;;31.92;75.52;100589.53;5079190;28;20089;-76
2022/08/13 09:26:51;;;;;;;14.30;11.38;;;;;;;31.81;75.92;100582.56;5078867;28;20114;-77
2022/08/13 09:29:37;;;;;;;13.15;11.02;;;;;;;31.85;76.67;100574.97;5093351;28;20119;-77
2022/08/13 09:32:23;;;;;;;16.38;11.93;;;;;;;31.86;78.08;100573.94;5079337;28;20036;-76
2022/08/13 09:35:08;;;;;;;15.27;11.50;;;;;;;31.79;78.38;100562.06;5094206;28;20123;-76
2022/08/13 09:37:59;;;;;;;13.82;11.32;;;;;;;31.82;79.36;100565.28;5078936;28;20024;-76
2022/08/13 09:40:55;;;;;;;16.52;11.75;;;;;;;31.55;77.56;100560.09;5094471;28;20092;-76
2022/08/13 09:43:42;;;;;;;14.02;10.93;;;;;;;31.75;76.99;100558.81;5078203;28;20059;-75
2022/08/13 09:46:31;;;;;;;13.95;10.85;;;;;;;31.18;70.65;100554.16;5093914;28;20399;-76
2022/08/13 09:49:18;;;;;;;12.20;10.57;;;;;;;31.79;69.38;100554.78;5092888;28;20035;-76
2022/08/13 09:52:04;;;;;;;13.18;11.10;;;;;;;32.07;69.49;100558.03;5078838;28;20518;-76
2022/08/13 09:54:50;;;;;;;16.23;11.07;;;;;;;31.98;70.79;100559.88;5092575;28;20125;-76
2022/08/13 09:57:53;;;;;;;13.43;10.40;;;;;;;31.70;72.00;100544.06;5093761;28;20073;-76
2022/08/13 10:00:41;;;;;;;15.57;11.30;;;;;;;31.68;71.63;100543.34;5095785;28;20078;-76
2022/08/13 10:03:27;;;;;;;14.57;11.68;;;;;;;31.50;74.11;100554.31;5097049;28;20023;-76
2022/08/13 10:06:13;;;;;;;15.75;11.40;;;;;;;31.77;72.16;100542.44;5096541;28;20048;-76
2022/08/13 10:09:00;;;;;;;13.80;10.80;;;;;;;31.86;71.21;100546.84;5097025;28;20055;-76
2022/08/13 10:11:46;;;;;;;14.73;11.48;;;;;;;30.74;78.27;100539.88;5097074;28;20030;-75
2022/08/13 10:14:33;;;;;;;16.58;11.73;;;;;;;31.67;72.75;100533.53;5096843;28;20035;-77
2022/08/13 10:17:19;;;;;;;12.65;10.50;;;;;;;31.95;71.87;100532.28;5096658;28;20035;-77
2022/08/13 10:20:05;;;;;;;17.08;11.15;;;;;;;32.13;72.43;100528.38;5096280;28;20027;-76
2022/08/13 10:22:53;;;;;;;14.30;11.10;;;;;;;32.23;70.28;100531.78;5096697;28;20028;-76
2022/08/13 10:25:39;;;;;;;18.40;12.40;;;;;;;32.30;70.17;100534.72;5097020;28;20476;-76
2022/08/13 10:28:27;;;;;;;16.38;11.68;;;;;;;32.67;67.82;100526.88;5097204;28;20028;-76
2022/08/13 10:31:14;;;;;;;13.60;11.10;;;;;;;32.98;65.34;100525.97;5096704;28;20020;-76
2022/08/13 10:34:00;;;;;;;15.23;11.48;;;;;;;31.53;72.50;100521.47;5097027;28;20463;-76
2022/08/13 10:36:46;;;;;;;13.93;11.32;;;;;;;32.47;69.47;100522.81;5097662;28;20085;-75
2022/08/13 10:39:32;;;;;;;13.30;10.63;;;;;;;32.78;67.06;100515.66;5096334;28;20422;-75
2022/08/13 10:42:18;;;;;;;16.35;11.38;;;;;;;32.93;67.03;100516.63;5096343;28;20481;-76
2022/08/13 10:45:05;;;;;;;14.00;11.35;;;;;;;31.68;70.43;100510.84;5081809;28;20031;-76
2022/08/13 10:47:54;;;;;;;12.80;11.32;;;;;;;32.25;69.05;100518.03;5096160;28;20031;-77
2022/08/13 10:50:41;;;;;;;14.75;11.02;;;;;;;32.18;67.22;100512.44;5082644;28;20090;-77
2022/08/13 10:56:32;;;;;;;16.17;10.80;;;;;;;32.23;68.84;100504.69;5096998;28;20039;-76
2022/08/13 10:59:18;;;;;;;13.13;10.27;;;;;;;32.77;66.72;100500.38;5096162;28;20332;-76
2022/08/13 11:02:06;;;;;;;17.33;10.95;;;;;;;32.26;64.45;100496.19;5096055;28;20047;-76
2022/08/13 11:04:52;;;;;;;12.30;10.40;;;;;;;32.54;64.51;100494.81;5096209;28;20036;-76
2022/08/13 11:07:39;;;;;;;14.50;10.60;;;;;;;32.30;65.04;100497.56;5081475;28;20035;-76
2022/08/13 11:10:24;;;;;;;13.95;10.43;;;;;;;32.73;63.19;100488.16;5081201;28;20027;-76
2022/08/13 11:13:10;;;;;;;15.70;10.75;;;;;;;32.77;61.86;100497.66;5095314;28;20034;-75
2022/08/13 11:15:58;;;;;;;13.77;10.88;;;;;;;31.99;66.63;100485.69;5096401;28;20031;-75
2022/08/13 11:18:44;;;;;;;15.13;10.30;;;;;;;32.32;65.65;100487.41;5095404;28;20093;-75
2022/08/13 11:21:29;;;;;;;15.45;10.85;;;;;;;32.86;64.45;100483.09;5095990;28;20412;-75
2022/08/13 11:24:15;;;;;;;12.35;10.63;;;;;;;33.23;62.65;100484.09;5080426;28;20027;-76
2022/08/13 11:27:01;;;;;;;14.70;10.88;;;;;;;33.03;63.95;100477.41;5080673;28;20024;-76
2022/08/13 11:29:47;;;;;;;14.38;10.70;;;;;;;32.49;60.50;100469.22;5096245;28;20039;-76
2022/08/13 11:32:32;;;;;;;18.45;11.02;;;;;;;32.61;62.01;100470.56;5094892;28;20046;-76
2022/08/13 11:35:18;;;;;;;11.27;10.02;;;;;;;32.44;59.24;100466.19;5082181;28;20019;-76
2022/08/13 11:38:12;;;;;;;11.88;10.18;;;;;;;32.88;58.44;100462.03;5095069;28;20036;-76
2022/08/13 11:40:59;;;;;;;12.23;10.13;;;;;;;32.83;57.85;100461.72;5080302;28;20030;-76
2022/08/13 11:43:45;;;;;;;14.68;10.65;;;;;;;33.40;57.71;100463.16;5080364;28;20028;-76
2022/08/13 11:46:30;;;;;;;15.57;10.55;;;;;;;33.26;57.94;100461.19;5095516;28;20035;-76
2022/08/13 11:49:16;;;;;;;13.93;10.93;;;;;;;33.19;58.78;100454.78;5080603;28;20422;-76
2022/08/13 11:52:02;;;;;;;14.00;9.93;;;;;;;33.48;57.57;100453.13;5095137;28;20024;-76
2022/08/13 11:54:48;;;;;;;14.65;11.00;;;;;;;33.74;56.43;100448.16;5095482;28;20050;-76
2022/08/13 11:57:34;;;;;;;13.43;10.65;;;;;;;33.51;57.28;100449.19;5094491;28;20074;-76
2022/08/13 12:00:20;;;;;;;15.98;10.52;;;;;;;33.66;55.70;100442.78;5081119;28;20028;-76
2022/08/13 12:03:06;;;;;;;13.23;10.20;;;;;;;33.60;55.73;100440.81;5082494;28;20408;-77
2022/08/13 12:05:52;;;;;;;12.85;10.45;;;;;;;33.27;55.26;100433.81;5098734;28;20032;-76
2022/08/13 12:08:38;;;;;;;14.48;9.70;;;;;;;34.23;52.71;100435.84;5099217;28;20020;-76
2022/08/13 12:11:24;;;;;;;13.65;10.00;;;;;;;34.25;51.13;100430.22;5100172;28;20016;-76
2022/08/13 12:14:09;;;;;;;14.25;10.20;;;;;;;34.03;50.75;100425.69;5099495;28;20039;-76
2022/08/13 12:16:56;;;;;;;11.55;9.63;;;;;;;34.10;50.08;100413.03;5082647;28;20032;-76
2022/08/13 12:19:42;;;;;;;12.60;9.68;;;;;;;33.85;50.81;100406.13;5098542;28;20180;-76
2022/08/13 12:22:28;;;;;;;12.85;10.05;;;;;;;33.92;48.40;100407.97;5097885;28;20031;-77
2022/08/13 12:25:13;;;;;;;11.80;9.75;;;;;;;33.64;49.95;100411.38;5084407;28;20086;-76
2022/08/13 12:28:11;;;;;;;13.90;9.80;;;;;;;34.51;49.92;100408.91;5084728;28;20080;-76
2022/08/13 12:31:03;;;;;;;13.80;10.35;;;;;;;34.57;47.38;100409.00;5097834;28;20103;-76
2022/08/13 12:33:48;;;;;;;10.95;9.82;;;;;;;35.12;46.11;100401.16;5094412;28;20475;-77
2022/08/13 12:36:34;;;;;;;13.27;9.45;;;;;;;35.24;45.96;100402.34;5095024;28;20051;-77
2022/08/13 12:39:20;;;;;;;15.57;10.10;;;;;;;34.59;45.50;100403.38;5093494;28;20027;-77
2022/08/13 12:42:06;;;;;;;15.07;9.93;;;;;;;34.75;45.22;100393.13;5094921;28;20031;-77
2022/08/13 12:44:52;;;;;;;13.43;9.65;;;;;;;34.68;45.20;100402.25;5094671;28;20144;-76
2022/08/13 12:47:39;;;;;;;12.43;9.48;;;;;;;34.75;44.44;100393.13;5093745;28;20341;-76
2022/08/13 12:50:25;;;;;;;12.18;9.50;;;;;;;34.55;44.16;100389.28;5093591;28;20055;-76
2022/08/13 12:53:12;;;;;;;10.48;8.98;;;;;;;34.37;44.20;100386.09;5093320;28;20089;-76